Time;durP1;ratioP1;P1;durP2;ratioP2;P2;SDS_P1;SDS_P2;PMS_P1;PMS_P2;Temp;Humidity;BMP_temperature;BMP_pressure;BME280_temperature;BME280_humidity;BME280_pressure;Samples;Min_cycle;Max_cycle;Signal;HPM_P1;HPM_P2
2021/06/22 00:01:14;;;;;;;34.55;4.50;;;;;;;22.24;61.12;99598.17;1759978;81;21312;-80
2021/06/22 00:04:12;;;;;;;24.80;5.12;;;;;;;22.22;60.92;99598.45;1759983;81;21678;-80
2021/06/22 00:07:20;;;;;;;49.15;5.42;;;;;;;22.22;60.90;99593.44;1759862;81;21336;-80
2021/06/22 00:10:28;;;;;;;38.50;4.65;;;;;;;22.24;60.00;99594.00;1759951;81;21265;-80
2021/06/22 00:13:32;;;;;;;33.00;5.20;;;;;;;22.29;59.70;99597.64;1759964;81;21261;-80
2021/06/22 00:16:36;;;;;;;44.60;6.47;;;;;;;22.35;59.46;99615.25;1759970;81;21205;-80
2021/06/22 00:19:42;;;;;;;40.30;5.78;;;;;;;22.37;59.38;99626.94;1760186;81;21780;-80
2021/06/22 00:22:48;;;;;;;42.15;6.47;;;;;;;22.37;59.43;99621.38;1759952;81;21259;-80
2021/06/22 00:25:54;;;;;;;70.50;6.97;;;;;;;22.35;59.41;99633.35;1759934;81;21138;-80
2021/06/22 00:29:00;;;;;;;50.80;5.92;;;;;;;22.36;59.09;99641.44;1798019;80;21268;-80
2021/06/22 00:32:05;;;;;;;47.78;7.35;;;;;;;22.37;59.00;99633.34;1761861;81;21181;-80
2021/06/22 00:35:11;;;;;;;54.15;7.87;;;;;;;22.39;58.89;99647.00;1728640;82;21312;-80
2021/06/22 00:38:18;;;;;;;54.30;6.97;;;;;;;22.40;58.80;99655.11;1723845;83;21222;-80
2021/06/22 00:41:23;;;;;;;69.27;7.83;;;;;;;22.42;58.79;99661.80;1760232;81;21317;-80
2021/06/22 00:44:27;;;;;;;65.70;8.23;;;;;;;22.42;58.74;99657.61;1759959;81;21803;-80
2021/06/22 00:47:34;;;;;;;62.23;8.43;;;;;;;22.41;58.83;99636.44;1759003;81;21841;-80
2021/06/22 00:50:38;;;;;;;43.70;7.28;;;;;;;22.38;59.20;99625.83;1759947;81;21765;-80
2021/06/22 00:53:44;;;;;;;58.78;8.63;;;;;;;22.35;59.26;99620.82;1751402;81;21257;-80
2021/06/22 00:56:51;;;;;;;56.65;8.10;;;;;;;22.30;59.50;99627.73;1731354;81;21847;-80
2021/06/22 00:59:55;;;;;;;66.47;9.28;;;;;;;22.26;59.27;99614.08;1750443;81;21692;-80
2021/06/22 01:03:03;;;;;;;78.05;10.10;;;;;;;22.23;58.86;99578.40;1760614;81;21154;-80
2021/06/22 01:06:09;;;;;;;67.25;8.68;;;;;;;22.22;58.71;99571.16;1763488;81;21319;-80
2021/06/22 01:09:25;;;;;;;72.22;11.50;;;;;;;22.21;58.39;99578.68;1759952;81;21142;-80
2021/06/22 01:12:30;;;;;;;55.88;10.05;;;;;;;22.22;58.16;99629.09;1759944;81;21293;-80
2021/06/22 01:15:37;;;;;;;66.75;8.38;;;;;;;22.27;58.38;99606.00;1758184;81;21192;-80
2021/06/22 01:18:41;;;;;;;56.95;8.95;;;;;;;22.28;58.54;99599.31;1760212;81;21149;-80
2021/06/22 01:21:49;;;;;;;72.10;9.13;;;;;;;22.26;59.16;99580.66;1759748;81;21725;-80
2021/06/22 01:25:06;;;;;;;71.55;7.95;;;;;;;22.16;59.84;99580.88;1759937;81;21264;-80
2021/06/22 01:28:11;;;;;;;80.72;8.50;;;;;;;22.07;60.32;99604.75;1759964;81;21762;-79
2021/06/22 01:31:18;;;;;;;71.87;8.25;;;;;;;22.01;60.47;99623.06;1759941;81;21130;-80
2021/06/22 01:34:31;;;;;;;45.00;7.35;;;;;;;21.94;60.33;99631.10;1759976;81;21158;-80
2021/06/22 01:37:37;;;;;;;59.88;10.82;;;;;;;21.91;60.75;99637.75;1739931;81;21872;-80
2021/06/22 01:40:53;;;;;;;86.90;10.13;;;;;;;21.87;60.60;99632.42;1764375;81;21767;-80
2021/06/22 01:43:59;;;;;;;85.90;10.15;;;;;;;21.83;59.92;99636.84;1746645;81;21681;-80
2021/06/22 01:47:05;;;;;;;85.20;10.60;;;;;;;21.84;60.04;99619.06;1766973;81;21256;-80
2021/06/22 01:50:09;;;;;;;102.35;10.88;;;;;;;21.83;59.88;99633.54;1766770;81;21153;-80
2021/06/22 01:53:15;;;;;;;87.62;10.05;;;;;;;21.83;59.97;99636.84;1765797;81;21300;-80
2021/06/22 01:56:22;;;;;;;87.20;11.30;;;;;;;21.81;59.98;99636.28;1766687;81;21736;-80
2021/06/22 01:59:27;;;;;;;59.60;9.10;;;;;;;21.78;60.17;99632.63;1766729;81;21264;-79
2021/06/22 02:02:42;;;;;;;82.80;10.82;;;;;;;21.75;60.16;99629.02;1766801;81;21796;-80
2021/06/22 02:05:48;;;;;;;66.67;9.30;;;;;;;21.73;60.29;99632.04;1766205;81;21843;-80
2021/06/22 02:08:55;;;;;;;64.17;9.00;;;;;;;21.72;60.39;99637.88;1765119;81;21189;-80
2021/06/22 02:12:00;;;;;;;68.42;10.00;;;;;;;21.66;60.77;99625.88;1764493;81;21859;-80
2021/06/22 02:15:06;;;;;;;81.57;11.25;;;;;;;21.61;61.02;99647.54;1766651;81;21632;-80
2021/06/22 02:18:13;;;;;;;81.10;12.93;;;;;;;21.57;61.02;99658.91;1766863;81;21143;-80
2021/06/22 02:21:20;;;;;;;82.25;11.03;;;;;;;21.55;61.42;99647.22;1746607;81;21307;-80
2021/06/22 02:24:26;;;;;;;77.05;11.35;;;;;;;21.54;61.49;99640.50;1765829;81;21299;-79
2021/06/22 02:27:36;;;;;;;77.45;9.45;;;;;;;21.52;61.46;99654.69;1766890;81;21261;-80
2021/06/22 02:30:40;;;;;;;77.87;10.48;;;;;;;21.53;61.49;99638.28;1746695;81;21201;-80
2021/06/22 02:33:46;;;;;;;108.07;10.45;;;;;;;21.53;62.02;99648.57;1766709;81;21295;-80
2021/06/22 02:36:51;;;;;;;75.62;11.22;;;;;;;21.52;62.34;99655.25;1766534;81;21261;-80
2021/06/22 02:39:58;;;;;;;82.60;10.70;;;;;;;21.49;62.63;99646.86;1766857;81;21154;-80
2021/06/22 02:43:04;;;;;;;92.42;10.90;;;;;;;21.45;62.70;99645.70;1766693;81;21256;-80
2021/06/22 02:46:09;;;;;;;91.17;12.37;;;;;;;21.40;62.50;99635.37;1766757;81;21257;-80
2021/06/22 02:49:15;;;;;;;105.43;11.25;;;;;;;21.39;62.51;99643.98;1767317;81;21288;-80
2021/06/22 02:52:20;;;;;;;82.92;11.70;;;;;;;21.37;62.41;99633.69;1767406;81;21202;-80
2021/06/22 02:55:25;;;;;;;92.78;12.60;;;;;;;21.36;62.55;99636.16;1766488;81;21272;-80
2021/06/22 02:58:33;;;;;;;78.83;10.10;;;;;;;21.37;62.69;99642.03;1766748;81;21276;-80
2021/06/22 03:01:39;;;;;;;99.22;11.60;;;;;;;21.36;62.75;99653.72;1766722;81;21311;-80
2021/06/22 03:04:44;;;;;;;86.30;11.70;;;;;;;21.40;62.65;99654.84;1766703;81;21757;-80
2021/06/22 03:07:48;;;;;;;101.12;14.15;;;;;;;21.49;62.54;99646.86;1766650;81;21269;-80
2021/06/22 03:10:53;;;;;;;91.60;12.37;;;;;;;21.69;61.81;99649.84;1746597;81;21138;-80
2021/06/22 03:14:00;;;;;;;91.28;13.78;;;;;;;21.95;61.31;99655.05;1767162;81;21355;-80
2021/06/22 03:17:09;;;;;;;69.33;11.03;;;;;;;22.22;60.22;99660.29;1766931;81;21268;-80
2021/06/22 03:20:16;;;;;;;88.27;14.68;;;;;;;22.43;59.32;99663.47;1766772;81;21168;-80
2021/06/22 03:23:22;;;;;;;99.52;13.38;;;;;;;22.63;59.03;99670.56;1766675;81;21141;-80
2021/06/22 03:26:28;;;;;;;95.45;14.33;;;;;;;22.83;58.17;99672.59;1766670;81;21157;-80
2021/06/22 03:29:34;;;;;;;106.03;14.05;;;;;;;23.01;57.95;99676.89;1767294;81;21848;-80
2021/06/22 03:32:39;;;;;;;114.57;15.65;;;;;;;23.18;57.28;99682.22;1767066;81;21260;-80
2021/06/22 03:35:43;;;;;;;87.80;12.28;;;;;;;23.34;57.13;99695.67;1766681;81;21185;-80
2021/06/22 03:38:48;;;;;;;116.40;14.50;;;;;;;23.56;56.57;99696.81;1762062;79;21300;-80
2021/06/22 03:41:56;;;;;;;97.30;14.93;;;;;;;23.80;56.02;99704.13;1750112;82;21158;-80
2021/06/22 03:45:01;;;;;;;125.25;16.20;;;;;;;23.93;54.89;99693.81;1750106;82;21265;-80
2021/06/22 03:48:08;;;;;;;121.95;15.72;;;;;;;24.06;55.07;99696.05;1750090;82;21785;-80
2021/06/22 03:51:12;;;;;;;107.90;17.65;;;;;;;24.22;53.88;99701.89;1750097;82;21154;-80
2021/06/22 03:54:18;;;;;;;119.62;15.83;;;;;;;24.29;54.42;99700.78;1749912;82;21311;-80
2021/06/22 03:57:23;;;;;;;116.33;15.83;;;;;;;24.32;54.49;99710.81;1747536;82;21188;-80
2021/06/22 04:00:30;;;;;;;108.92;15.72;;;;;;;24.34;54.51;99709.16;1674310;84;21775;-80
2021/06/22 04:03:36;;;;;;;97.10;14.20;;;;;;;24.40;53.91;99710.84;1664652;85;21717;-80
2021/06/22 04:06:44;;;;;;;;;;;;;;;24.46;54.17;99718.09;1689313;84;21198;-80
2021/06/22 04:09:49;;;;;;;102.55;14.13;;;;;;;24.52;54.30;99713.36;1748452;82;20203;-80
2021/06/22 04:12:57;;;;;;;126.30;16.77;;;;;;;24.56;54.54;99711.11;1712866;84;21257;-80
2021/06/22 04:16:02;;;;;;;95.00;15.72;;;;;;;24.57;53.88;99721.17;1740180;81;21262;-79
2021/06/22 04:19:08;;;;;;;135.80;17.02;;;;;;;24.52;53.90;99721.18;1735462;81;21244;-80
2021/06/22 04:22:15;;;;;;;92.10;15.63;;;;;;;24.44;53.87;99716.99;1751355;82;21312;-80
2021/06/22 04:25:29;;;;;;;121.97;16.48;;;;;;;24.47;54.22;99715.61;1749391;82;21829;-80
2021/06/22 04:28:36;;;;;;;126.45;17.70;;;;;;;24.54;53.06;99724.52;1722633;83;21273;-79
2021/06/22 04:31:41;;;;;;;141.57;17.48;;;;;;;24.59;52.94;99737.65;1720586;82;21788;-79
2021/06/22 04:34:47;;;;;;;116.25;16.55;;;;;;;24.54;53.08;99730.11;1720237;83;21170;-80
2021/06/22 04:37:52;;;;;;;155.25;19.05;;;;;;;24.52;53.82;99728.17;1720259;83;21269;-80
2021/06/22 04:40:57;;;;;;;147.20;17.23;;;;;;;24.60;53.88;99728.14;1719661;82;21776;-80
2021/06/22 04:44:01;;;;;;;133.05;18.30;;;;;;;24.78;53.53;99722.50;1762806;81;21283;-79
2021/06/22 04:47:06;;;;;;;118.97;16.75;;;;;;;24.87;51.36;99723.59;1766750;81;21280;-80
2021/06/22 04:50:13;;;;;;;126.12;17.60;;;;;;;24.85;51.64;99723.05;1766644;81;21252;-79
2021/06/22 04:53:19;;;;;;;102.02;16.35;;;;;;;24.84;51.85;99723.62;1764060;81;21816;-80
2021/06/22 04:56:25;;;;;;;136.88;18.12;;;;;;;24.93;52.52;99721.05;1760887;81;21912;-79
2021/06/22 04:59:30;;;;;;;116.08;16.50;;;;;;;25.03;50.87;99718.77;1765311;81;21240;-80
2021/06/22 05:02:36;;;;;;;122.58;19.70;;;;;;;25.07;50.87;99729.13;1765190;81;21258;-80
2021/06/22 05:05:40;;;;;;;117.97;16.90;;;;;;;25.09;51.03;99724.67;1762716;81;21287;-79
2021/06/22 05:08:48;;;;;;;145.68;19.07;;;;;;;25.12;52.17;99736.11;1765533;81;21137;-79
2021/06/22 05:11:54;;;;;;;89.45;15.15;;;;;;;25.18;50.71;99746.17;1762208;79;21195;-80
2021/06/22 05:14:59;;;;;;;129.00;17.85;;;;;;;25.27;51.71;99748.39;1697617;83;22236;-80
2021/06/22 05:18:04;;;;;;;98.87;15.40;;;;;;;25.40;52.17;99746.33;1754433;81;21293;-79
2021/06/22 05:21:09;;;;;;;97.33;13.98;;;;;;;25.55;53.26;99754.67;1760589;81;21218;-80
2021/06/22 05:24:16;;;;;;;119.80;17.95;;;;;;;25.73;52.18;99758.73;1764582;81;21337;-79
2021/06/22 05:27:22;;;;;;;115.97;17.57;;;;;;;25.87;50.58;99768.77;1758363;81;21268;-80
2021/06/22 05:30:27;;;;;;;141.40;19.02;;;;;;;25.95;49.66;99767.59;1747176;81;22023;-79
2021/06/22 05:33:32;;;;;;;111.28;16.82;;;;;;;25.94;49.16;99765.09;1732722;81;21303;-80
2021/06/22 05:36:37;;;;;;;143.95;18.48;;;;;;;26.00;49.01;99768.12;1695131;83;21308;-79
2021/06/22 05:39:42;;;;;;;132.55;16.85;;;;;;;26.08;49.90;99778.72;1749549;81;21721;-80
2021/06/22 05:42:48;;;;;;;132.72;18.20;;;;;;;26.13;48.31;99777.84;1780492;79;21792;-80
2021/06/22 05:45:54;;;;;;;139.52;18.40;;;;;;;26.13;47.79;99782.05;1783784;79;21236;-80
2021/06/22 05:48:59;;;;;;;177.10;19.50;;;;;;;26.06;48.80;99775.34;1777728;79;21311;-80
2021/06/22 05:51:58;;;;;;;139.68;18.87;;;;;;;26.12;49.04;99781.78;1771330;79;21282;-79
2021/06/22 05:54:50;;;;;;;149.02;19.50;;;;;;;26.16;49.26;99787.91;1788798;79;21294;-80
2021/06/22 05:58:01;;;;;;;147.17;18.85;;;;;;;26.13;48.17;99774.47;1772722;79;21247;-80
2021/06/22 06:01:06;;;;;;;133.25;18.20;;;;;;;26.13;49.08;99778.67;1754202;81;21265;-80
2021/06/22 06:04:11;;;;;;;127.65;17.85;;;;;;;26.17;49.58;99785.94;1775314;79;21192;-80
2021/06/22 06:07:17;;;;;;;117.30;16.90;;;;;;;26.17;49.06;99784.54;1775374;79;21284;-81
2021/06/22 06:10:23;;;;;;;143.60;18.35;;;;;;;26.20;49.06;99783.37;1789464;79;21125;-81
2021/06/22 06:13:40;;;;;;;126.82;18.62;;;;;;;26.14;49.18;99788.75;1742576;81;21265;-81
2021/06/22 06:16:45;;;;;;;167.20;20.82;;;;;;;26.14;48.34;99788.75;1764116;79;21729;-81
2021/06/22 06:19:52;;;;;;;110.10;16.67;;;;;;;26.13;48.75;99789.88;1778043;79;21351;-82
2021/06/22 06:22:58;;;;;;;128.62;18.12;;;;;;;26.20;49.11;99791.77;1788793;79;21702;-82
2021/06/22 06:26:03;;;;;;;138.07;18.17;;;;;;;26.22;46.65;99785.33;1756757;81;21760;-81
2021/06/22 06:30:00;;;;;;;153.35;18.67;;;;;;;26.24;48.47;99785.03;1783725;79;21729;-81
2021/06/22 06:32:16;;;;;;;135.10;20.72;;;;;;;26.28;48.36;99777.71;1770018;79;21118;-81
2021/06/22 06:35:22;;;;;;;139.62;19.05;;;;;;;26.35;48.27;99780.16;1782705;79;21113;-81
2021/06/22 06:38:29;;;;;;;158.90;21.50;;;;;;;26.51;49.40;99781.75;1784735;79;21291;-81
2021/06/22 06:41:34;;;;;;;158.37;20.48;;;;;;;26.63;48.78;99779.41;1766739;79;21331;-81
2021/06/22 06:44:38;;;;;;;159.40;21.02;;;;;;;26.73;46.83;99775.09;1798445;79;21235;-81
2021/06/22 06:47:44;;;;;;;140.50;20.15;;;;;;;26.72;47.04;99779.03;1758931;81;21251;-81
2021/06/22 06:50:49;;;;;;;148.07;19.73;;;;;;;26.78;47.10;99772.80;1802161;79;21262;-81
2021/06/22 06:53:54;;;;;;;117.50;17.32;;;;;;;26.80;48.38;99771.92;1777513;79;21248;-81
2021/06/22 06:56:59;;;;;;;153.32;19.17;;;;;;;26.87;48.03;99782.81;1745105;81;21217;-81
2021/06/22 07:00:05;;;;;;;136.70;21.73;;;;;;;26.95;48.47;99786.34;1726831;81;21279;-81
2021/06/22 07:03:10;;;;;;;124.97;18.15;;;;;;;26.91;48.46;99776.84;1729476;81;21252;-81
2021/06/22 07:06:16;;;;;;;118.55;17.95;;;;;;;26.87;49.38;99789.82;1725194;82;21892;-81
2021/06/22 07:09:22;;;;;;;139.75;18.37;;;;;;;26.85;48.45;99778.05;1725653;81;21177;-81
2021/06/22 07:12:28;;;;;;;128.38;17.30;;;;;;;26.82;47.77;99785.10;1730382;81;21350;-81
2021/06/22 07:15:34;;;;;;;128.02;15.60;;;;;;;26.82;48.08;99784.23;1735337;81;21271;-81
2021/06/22 07:18:39;;;;;;;171.37;20.55;;;;;;;26.87;47.11;99783.64;1725828;81;21251;-81
2021/06/22 07:21:45;;;;;;;121.97;16.82;;;;;;;26.90;47.02;99785.83;1734052;81;21231;-81
2021/06/22 07:24:51;;;;;;;150.30;18.70;;;;;;;26.85;46.84;99792.91;1735526;81;21307;-81
2021/06/22 07:27:56;;;;;;;125.87;16.57;;;;;;;26.85;47.62;99801.89;1736445;81;21804;-81
2021/06/22 07:31:02;;;;;;;140.70;18.90;;;;;;;26.87;47.47;99798.23;1738742;81;21255;-81
2021/06/22 07:34:06;;;;;;;118.20;16.52;;;;;;;26.92;46.77;99799.02;1726246;82;21324;-82
2021/06/22 07:37:11;;;;;;;144.47;17.75;;;;;;;27.01;46.25;99798.64;1739675;81;21993;-81
2021/06/22 07:40:11;;;;;;;131.00;15.18;;;;;;;27.08;46.57;99802.51;1728998;81;21263;-81
2021/06/22 07:43:10;;;;;;;119.05;16.45;;;;;;;27.28;46.96;99808.45;1717470;82;21264;-81
2021/06/22 07:46:15;;;;;;;133.75;18.65;;;;;;;27.41;45.99;99806.89;1702200;83;22322;-82
2021/06/22 07:49:20;;;;;;;146.28;16.55;;;;;;;27.49;47.62;99807.64;1758435;80;21267;-81
2021/06/22 07:52:24;;;;;;;108.17;14.23;;;;;;;27.60;46.77;99819.00;1763464;80;21847;-82
2021/06/22 07:55:29;;;;;;;117.17;16.75;;;;;;;27.70;45.83;99816.63;1741804;81;21331;-81
2021/06/22 07:58:33;;;;;;;114.12;15.58;;;;;;;27.78;46.40;99819.38;1701426;83;21804;-81
2021/06/22 08:01:39;;;;;;;119.17;16.10;;;;;;;27.90;45.86;99816.92;1698059;83;21159;-81
2021/06/22 08:04:45;;;;;;;109.00;14.60;;;;;;;27.99;44.90;99817.34;1763419;80;21796;-81
2021/06/22 08:07:50;;;;;;;114.42;14.13;;;;;;;28.05;45.37;99826.56;1735871;81;21264;-81
2021/06/22 08:10:57;;;;;;;128.85;15.35;;;;;;;28.11;44.63;99824.50;1764761;80;21240;-81
2021/06/22 08:14:02;;;;;;;97.92;12.90;;;;;;;28.17;42.85;99823.28;1762904;80;21288;-81
2021/06/22 08:17:08;;;;;;;120.67;15.30;;;;;;;28.12;43.12;99824.19;1757827;80;21138;-81
2021/06/22 08:20:15;;;;;;;101.75;14.50;;;;;;;28.15;43.52;99833.43;1764052;80;21240;-81
2021/06/22 08:23:20;;;;;;;121.17;15.20;;;;;;;28.19;44.04;99830.86;1757588;80;21244;-81
2021/06/22 08:26:26;;;;;;;76.97;12.03;;;;;;;28.18;43.46;99834.23;1742922;81;21334;-81
2021/06/22 08:29:31;;;;;;;95.03;11.78;;;;;;;28.25;43.68;99838.06;1764420;80;21288;-81
2021/06/22 08:32:36;;;;;;;97.35;11.90;;;;;;;28.31;43.08;99831.78;1762510;80;21244;-81
2021/06/22 08:35:42;;;;;;;88.72;11.93;;;;;;;28.36;43.80;99833.13;1740791;81;21213;-81
2021/06/22 08:38:48;;;;;;;74.03;10.55;;;;;;;28.46;45.02;99839.42;1699093;83;21166;-82
2021/06/22 08:41:55;;;;;;;74.85;10.38;;;;;;;28.52;42.86;99828.37;1707455;82;22274;-82
2021/06/22 08:45:00;;;;;;;58.50;9.00;;;;;;;28.63;43.60;99834.64;1780889;79;21121;-82
2021/06/22 08:48:09;;;;;;;59.70;8.90;;;;;;;28.71;42.21;99831.14;1788252;79;21816;-81
2021/06/22 08:51:15;;;;;;;52.70;7.55;;;;;;;28.71;41.41;99837.34;1786984;79;22182;-81
2021/06/22 08:54:22;;;;;;;56.40;7.30;;;;;;;28.72;39.96;99846.04;1789340;79;21315;-81
2021/06/22 08:57:28;;;;;;;48.65;6.90;;;;;;;28.76;40.02;99845.11;1772095;79;21370;-81
2021/06/22 09:00:36;;;;;;;38.48;5.45;;;;;;;28.81;38.28;99843.36;1784542;79;21303;-81
2021/06/22 09:03:40;;;;;;;51.92;6.92;;;;;;;28.85;38.51;99845.82;1787070;79;22388;-82
2021/06/22 09:06:47;;;;;;;42.38;6.03;;;;;;;28.90;38.14;99849.95;1783826;79;21291;-82
2021/06/22 09:09:52;;;;;;;39.13;5.97;;;;;;;28.94;39.05;99846.78;1785481;79;22270;-82
2021/06/22 09:12:58;;;;;;;43.52;6.47;;;;;;;29.01;39.53;99844.41;1745007;79;21371;-82
2021/06/22 09:16:02;;;;;;;32.08;4.30;;;;;;;29.03;38.87;99839.33;1746797;80;21304;-82
2021/06/22 09:19:13;;;;;;;36.05;5.20;;;;;;;29.07;38.94;99846.55;1719477;81;21304;-82
2021/06/22 09:22:27;;;;;;;34.92;5.58;;;;;;;29.11;38.69;99842.80;1718561;82;21268;-81
2021/06/22 09:25:32;;;;;;;29.85;5.10;;;;;;;29.19;37.99;99839.86;1762523;79;21316;-81
2021/06/22 09:28:38;;;;;;;34.33;4.25;;;;;;;29.26;39.45;99839.69;1768073;79;21208;-81
2021/06/22 09:31:43;;;;;;;33.75;4.83;;;;;;;29.30;38.04;99837.09;1795950;79;21314;-81
2021/06/22 09:34:48;;;;;;;44.90;5.53;;;;;;;29.33;39.40;99837.88;1785293;79;21328;-81
2021/06/22 09:37:58;;;;;;;29.50;4.97;;;;;;;29.31;36.37;99836.52;1791365;79;21822;-81
2021/06/22 09:41:33;;;;;;;34.53;4.25;;;;;;;29.26;38.57;99842.50;1795735;79;21826;-81
2021/06/22 09:44:43;;;;;;;38.67;4.70;;;;;;;29.23;37.27;99845.13;1794105;79;21821;-82
2021/06/22 09:47:55;;;;;;;43.68;4.45;;;;;;;29.23;37.27;99845.13;1785567;79;21739;-81
2021/06/22 09:51:01;;;;;;;37.60;5.60;;;;;;;29.26;39.50;99839.69;1773852;79;21356;-82
2021/06/22 09:54:29;;;;;;;44.20;4.58;;;;;;;29.29;41.71;99841.89;1781414;79;21355;-82
2021/06/22 09:57:35;;;;;;;36.80;6.15;;;;;;;29.29;41.71;99841.89;1775279;80;21177;-82
2021/06/22 10:00:46;;;;;;;45.50;5.62;;;;;;;29.28;41.08;99858.53;1779796;79;21185;-82
2021/06/22 10:03:52;;;;;;;48.92;5.70;;;;;;;29.28;41.08;99858.53;1784534;79;21649;-82
2021/06/22 10:07:06;;;;;;;31.33;5.42;;;;;;;29.22;40.64;99854.73;1780323;79;21251;-82
2021/06/22 10:10:12;;;;;;;30.37;5.22;;;;;;;29.05;40.48;99850.27;1783575;79;21271;-82
2021/06/22 10:13:19;;;;;;;33.38;4.85;;;;;;;29.05;40.48;99850.27;1784013;79;21169;-82
2021/06/22 10:16:32;;;;;;;25.97;4.03;;;;;;;29.04;41.70;99856.47;1787117;79;21327;-82
2021/06/22 10:19:37;;;;;;;31.10;4.53;;;;;;;29.03;40.21;99857.05;1792406;79;21252;-82
2021/06/22 10:22:45;;;;;;;37.90;4.50;;;;;;;29.03;42.28;99857.05;1785960;79;21140;-82
2021/06/22 10:25:51;;;;;;;35.38;5.28;;;;;;;29.11;38.99;99854.07;1782244;79;21178;-82
2021/06/22 10:28:55;;;;;;;50.10;4.55;;;;;;;29.12;38.38;99870.39;1790321;79;21351;-82
2021/06/22 10:32:02;;;;;;;24.40;3.80;;;;;;;29.11;39.34;99856.88;1785335;79;21288;-82
2021/06/22 10:35:11;;;;;;;29.40;3.50;;;;;;;29.12;38.31;99857.14;1787910;79;21240;-82
2021/06/22 10:38:16;;;;;;;23.43;3.37;;;;;;;29.15;37.92;99859.92;1788431;79;21264;-82
2021/06/22 10:41:22;;;;;;;29.48;4.53;;;;;;;29.11;36.12;99863.09;1781498;79;22033;-82
2021/06/22 10:44:58;;;;;;;33.42;4.12;;;;;;;29.06;37.78;99856.16;1789670;79;22143;-82
2021/06/22 10:48:04;;;;;;;18.98;3.62;;;;;;;29.06;39.30;99844.89;1785482;79;21825;-82
2021/06/22 10:51:11;;;;;;;25.72;3.77;;;;;;;29.06;39.30;99844.89;1772639;79;21945;-82
2021/06/22 10:54:16;;;;;;;32.33;2.83;;;;;;;29.15;37.75;99855.13;1753322;79;21244;-82
2021/06/22 10:57:20;;;;;;;19.52;3.05;;;;;;;29.23;36.02;99851.59;1786935;79;21236;-82
2021/06/22 11:00:26;;;;;;;21.77;3.52;;;;;;;29.29;37.61;99846.69;1786963;79;21870;-82
2021/06/22 11:03:37;;;;;;;18.62;2.47;;;;;;;29.35;37.70;99844.59;1755745;81;21253;-82
2021/06/22 11:06:41;;;;;;;;;;;;;;;29.35;36.40;99846.84;1714987;82;21304;-82
2021/06/22 11:09:46;;;;;;;18.92;2.45;;;;;;;29.29;36.14;99839.07;1713307;82;20268;-83
2021/06/22 11:12:57;;;;;;;10.23;2.08;;;;;;;29.32;37.08;99846.66;1724917;82;21296;-83
2021/06/22 11:16:05;;;;;;;18.98;2.10;;;;;;;29.37;36.64;99833.30;1717092;82;21838;-82
2021/06/22 11:19:18;;;;;;;21.20;2.58;;;;;;;29.41;35.70;99847.02;1718551;82;21170;-82
2021/06/22 11:22:23;;;;;;;16.48;2.33;;;;;;;29.47;37.46;99841.53;1715614;82;21336;-82
2021/06/22 11:25:34;;;;;;;21.68;2.87;;;;;;;29.54;35.26;99836.88;1724605;82;21879;-82
2021/06/22 11:29:02;;;;;;;17.42;2.85;;;;;;;29.61;37.70;99842.14;1721884;82;21253;-82
2021/06/22 11:32:07;;;;;;;10.88;1.98;;;;;;;29.67;37.83;99850.16;1769660;78;21299;-82
2021/06/22 11:35:15;;;;;;;13.62;2.17;;;;;;;29.74;38.17;99846.35;1799572;79;21275;-82
2021/06/22 11:38:21;;;;;;;14.07;2.10;;;;;;;29.78;38.53;99838.08;1763060;81;21256;-82
2021/06/22 11:41:26;;;;;;;10.08;2.52;;;;;;;29.79;36.08;99842.02;1761870;81;21310;-82
2021/06/22 11:44:32;;;;;;;16.30;3.45;;;;;;;29.79;37.31;99842.02;1716537;82;21260;-82
2021/06/22 11:47:45;;;;;;;13.62;1.80;;;;;;;29.77;33.44;99841.47;1706663;84;21316;-82
2021/06/22 11:50:55;;;;;;;13.38;1.98;;;;;;;29.76;34.49;99834.17;1711407;82;21268;-82
2021/06/22 11:54:01;;;;;;;8.98;1.90;;;;;;;29.79;36.25;99836.95;1761482;81;21312;-82
2021/06/22 11:57:06;;;;;;;17.77;1.82;;;;;;;29.88;35.44;99826.60;1760441;79;21332;-82
2021/06/22 12:00:20;;;;;;;13.28;2.00;;;;;;;29.93;35.87;99832.70;1777118;79;21712;-82
2021/06/22 12:03:25;;;;;;;10.80;1.65;;;;;;;29.97;36.82;99825.25;1768426;80;21141;-82
2021/06/22 12:06:30;;;;;;;8.75;1.57;;;;;;;30.13;34.60;99814.47;1797556;79;21715;-82
2021/06/22 12:09:36;;;;;;;15.88;1.60;;;;;;;30.13;34.60;99814.47;1787272;79;21760;-82
2021/06/22 12:12:49;;;;;;;10.00;1.70;;;;;;;30.18;34.92;99818.61;1764319;80;21245;-82
2021/06/22 12:15:56;;;;;;;8.53;1.77;;;;;;;30.23;35.35;99819.31;1757564;80;21257;-82
2021/06/22 12:19:09;;;;;;;8.48;1.75;;;;;;;30.29;37.75;99822.25;1792296;79;21838;-82
2021/06/22 12:22:19;;;;;;;10.85;1.70;;;;;;;30.34;37.35;99824.12;1770634;79;21342;-82
2021/06/22 12:25:31;;;;;;;8.70;1.40;;;;;;;30.38;36.18;99832.20;1752949;81;21308;-82
2021/06/22 12:28:42;;;;;;;13.85;1.60;;;;;;;30.34;35.14;99826.11;1771454;79;21756;-82
2021/06/22 12:31:54;;;;;;;12.37;1.52;;;;;;;30.33;35.39;99823.04;1723322;82;21249;-82
2021/06/22 12:34:59;;;;;;;15.35;1.32;;;;;;;30.27;35.06;99824.58;1715264;81;21783;-79
2021/06/22 12:38:15;;;;;;;5.78;1.20;;;;;;;30.20;33.68;99824.17;1796737;79;21307;-81
2021/06/22 12:41:21;;;;;;;11.50;1.42;;;;;;;30.13;34.85;99828.02;1767760;80;21807;-81
2021/06/22 12:44:36;;;;;;;6.58;1.15;;;;;;;30.08;35.08;99825.87;1777365;79;21294;-82
2021/06/22 12:47:42;;;;;;;7.67;1.10;;;;;;;30.05;33.47;99825.34;1751375;81;21287;-80
2021/06/22 12:50:48;;;;;;;6.78;1.25;;;;;;;30.00;34.54;99823.22;1732778;81;21190;-80
2021/06/22 12:53:55;;;;;;;5.40;1.12;;;;;;;30.07;34.72;99818.57;1750064;81;21221;-80
2021/06/22 12:57:22;;;;;;;7.00;0.93;;;;;;;30.14;35.11;99826.86;1749815;81;21174;-80
2021/06/22 13:00:50;;;;;;;8.40;1.25;;;;;;;30.15;36.06;99828.52;1715113;83;21225;-80
2021/06/22 13:04:00;;;;;;;8.07;1.30;;;;;;;30.14;36.48;99828.27;1728891;83;21942;-80
2021/06/22 13:07:13;;;;;;;13.00;1.15;;;;;;;30.17;37.61;99843.16;1703013;83;21240;-81
2021/06/22 13:10:22;;;;;;;10.25;1.22;;;;;;;30.17;38.59;99826.81;1707353;83;21181;-81
2021/06/22 13:13:37;;;;;;;9.10;1.55;;;;;;;30.16;40.39;99831.63;1713073;83;21209;-81
2021/06/22 13:16:43;;;;;;;7.65;0.93;;;;;;;30.16;40.97;99821.75;1707155;83;21194;-80
2021/06/22 13:20:05;;;;;;;10.53;1.62;;;;;;;30.18;40.58;99831.30;1696677;84;21404;-81
2021/06/22 13:23:13;;;;;;;11.48;1.50;;;;;;;30.15;40.75;99823.46;1695093;84;21835;-80
2021/06/22 13:26:19;;;;;;;11.70;1.65;;;;;;;30.11;41.07;99826.05;1697449;84;21789;-81
2021/06/22 13:29:24;;;;;;;5.92;1.75;;;;;;;30.09;39.21;99822.72;1714467;82;21149;-80
2021/06/22 13:32:34;;;;;;;13.35;1.95;;;;;;;30.05;35.86;99823.09;1706111;84;21729;-80
2021/06/22 13:35:47;;;;;;;4.00;1.12;;;;;;;30.01;36.19;99815.02;1706010;84;21299;-80
2021/06/22 13:38:51;;;;;;;8.50;1.17;;;;;;;29.99;36.02;99816.75;1705912;84;21815;-80
2021/06/22 13:41:59;;;;;;;8.60;2.05;;;;;;;29.96;36.66;99819.36;1706389;84;21865;-80
2021/06/22 13:45:22;;;;;;;7.92;1.27;;;;;;;29.90;36.84;99813.02;1769751;80;21169;-80
2021/06/22 13:48:32;;;;;;;5.92;1.40;;;;;;;29.84;37.39;99816.27;1785076;79;21231;-80
2021/06/22 13:51:39;;;;;;;7.37;1.40;;;;;;;29.77;38.95;99816.11;1802599;79;21780;-80
2021/06/22 13:55:04;;;;;;;6.80;1.50;;;;;;;29.76;39.56;99814.45;1803277;79;21680;-80
2021/06/22 13:58:19;;;;;;;9.58;1.32;;;;;;;29.78;40.95;99812.71;1803281;78;21335;-80
2021/06/22 14:01:22;;;;;;;6.00;1.40;;;;;;;29.80;40.26;99816.06;1803409;79;21261;-80
2021/06/22 14:04:27;;;;;;;11.35;1.82;;;;;;;29.84;41.47;99816.27;1802964;79;21287;-80
2021/06/22 14:07:33;;;;;;;9.60;1.60;;;;;;;29.83;40.79;99818.81;1803363;79;21260;-80
2021/06/22 14:10:37;;;;;;;16.42;2.17;;;;;;;29.79;40.09;99813.83;1803398;79;21133;-80
2021/06/22 14:13:45;;;;;;;5.92;1.57;;;;;;;29.76;40.54;99813.62;1803375;79;21145;-80
2021/06/22 14:16:51;;;;;;;10.32;1.37;;;;;;;29.74;41.11;99815.93;1803438;79;21185;-80
2021/06/22 14:19:56;;;;;;;8.28;1.10;;;;;;;29.71;40.84;99808.92;1803302;79;21288;-80
2021/06/22 14:23:01;;;;;;;11.33;1.47;;;;;;;29.73;40.97;99806.61;1803376;79;21339;-80